createdAt,value
2023-03-23T15:57:53.209Z,7.60
2023-03-23T16:03:08.797Z,7.78
2023-03-23T16:08:25.157Z,7.43
2023-03-23T16:13:40.254Z,7.05
2023-03-23T16:18:55.165Z,6.57
2023-03-23T16:24:10.189Z,6.18
2023-03-23T16:29:46.694Z,6.15
2023-03-23T16:35:00.502Z,6.30
2023-03-23T16:40:16.127Z,6.50
2023-03-23T16:45:31.164Z,6.07
2023-03-23T16:50:46.170Z,5.40
2023-03-23T16:56:01.190Z,5.03
2023-03-23T17:01:16.500Z,4.30
2023-03-23T17:06:32.176Z,4.25
2023-03-23T17:11:47.204Z,6.10
2023-03-23T17:17:02.192Z,4.20
2023-03-23T17:22:17.214Z,4.90
2023-03-23T17:27:32.119Z,4.32
2023-03-23T17:32:47.178Z,4.22
2023-03-23T17:38:01.900Z,4.25
2023-03-23T17:43:17.159Z,4.22
2023-03-23T17:48:32.157Z,3.55
2023-03-23T17:53:47.195Z,3.50
2023-03-23T17:59:02.178Z,4.20
2023-03-23T18:04:17.283Z,3.58
2023-03-23T18:09:32.171Z,3.65
2023-03-23T18:14:47.223Z,4.22
2023-03-23T18:20:02.169Z,4.00
2023-03-23T18:25:17.195Z,3.20
2023-03-23T18:30:32.148Z,4.90
2023-03-23T18:35:47.233Z,3.80
2023-03-23T18:41:02.180Z,3.90
2023-03-23T18:46:17.246Z,4.15
2023-03-23T18:51:31.948Z,4.32
2023-03-23T18:56:48.243Z,4.50
2023-03-23T19:02:03.576Z,3.67
2023-03-23T19:07:19.168Z,3.70
2023-03-23T19:12:34.532Z,4.07
2023-03-23T19:17:50.214Z,2.88
2023-03-23T19:23:05.252Z,2.75
2023-03-23T19:29:05.589Z,3.13
2023-03-23T19:33:55.188Z,2.60
2023-03-23T19:39:10.204Z,2.95
2023-03-23T19:44:25.629Z,3.10
2023-03-23T19:49:40.946Z,2.78
2023-03-23T19:54:56.213Z,2.63
2023-03-23T20:00:10.975Z,3.50
2023-03-23T20:05:26.656Z,2.13
2023-03-23T20:10:41.978Z,2.42
2023-03-23T20:16:00.081Z,3.75
2023-03-23T20:21:18.951Z,3.58
2023-03-23T20:26:35.736Z,2.45
2023-03-23T20:31:51.533Z,2.60
2023-03-23T20:37:07.494Z,2.60
2023-03-23T20:42:23.306Z,2.50
2023-03-23T20:47:38.214Z,3.22
2023-03-23T20:52:53.255Z,2.50
2023-03-23T20:58:08.265Z,2.47
2023-03-23T21:03:23.165Z,3.35
2023-03-23T21:08:38.156Z,1.67
2023-03-23T21:13:53.395Z,2.85
2023-03-23T21:19:08.214Z,2.55
2023-03-23T21:24:23.209Z,2.55
2023-03-23T21:29:38.545Z,2.40
2023-03-23T21:34:54.206Z,2.47
2023-03-23T21:40:09.473Z,2.70
2023-03-23T21:45:25.192Z,2.80
2023-03-23T21:50:40.199Z,2.70
2023-03-23T21:55:55.195Z,2.13
2023-03-23T22:01:10.204Z,2.60
2023-03-23T22:06:25.228Z,1.95
2023-03-23T22:11:40.163Z,2.45
2023-03-23T22:17:33.217Z,2.92
2023-03-23T22:22:48.225Z,2.70
2023-03-23T22:28:03.216Z,2.65
2023-03-23T22:33:18.188Z,2.83
2023-03-23T22:38:33.180Z,2.15
2023-03-23T22:43:48.160Z,2.17
2023-03-23T22:49:03.192Z,3.03
2023-03-23T22:54:18.282Z,2.20
2023-03-23T22:59:33.164Z,2.22
2023-03-23T23:04:48.592Z,2.22
2023-03-23T23:10:04.238Z,2.30
2023-03-23T23:15:20.243Z,2.58
2023-03-23T23:20:35.209Z,2.50
2023-03-23T23:25:51.147Z,2.00
2023-03-23T23:31:06.040Z,2.58
2023-03-23T23:36:21.005Z,1.60
2023-03-23T23:41:36.548Z,2.00
2023-03-23T23:46:53.282Z,1.77
2023-03-23T23:52:09.520Z,2.95
2023-03-23T23:57:25.242Z,1.85
